sensor_id;sensor_type;location;lat;lon;timestamp;pressure;altitude;pressure_sealevel;temperature;humidity
45731;BME280;31440;48.584;13.460;2023-05-08T00:00:44;97156.28;;;12.67;100.00
45731;BME280;31440;48.584;13.460;2023-05-08T00:03:50;97161.16;;;12.53;100.00
45731;BME280;31440;48.584;13.460;2023-05-08T00:06:55;97156.53;;;12.38;100.00
45731;BME280;31440;48.584;13.460;2023-05-08T00:09:59;97154.53;;;12.68;100.00
45731;BME280;31440;48.584;13.460;2023-05-08T00:13:06;97136.81;;;12.31;100.00
45731;BME280;31440;48.584;13.460;2023-05-08T00:16:10;97160.31;;;12.29;100.00
45731;BME280;31440;48.584;13.460;2023-05-08T00:19:16;97159.81;;;12.19;100.00
45731;BME280;31440;48.584;13.460;2023-05-08T00:22:20;97160.16;;;12.57;100.00
45731;BME280;31440;48.584;13.460;2023-05-08T00:25:26;97158.41;;;12.34;100.00
45731;BME280;31440;48.584;13.460;2023-05-08T00:28:31;97156.53;;;12.38;100.00
45731;BME280;31440;48.584;13.460;2023-05-08T00:31:37;97134.75;;;12.40;100.00
45731;BME280;31440;48.584;13.460;2023-05-08T00:34:41;97164.84;;;12.47;100.00
45731;BME280;31440;48.584;13.460;2023-05-08T00:37:46;97171.41;;;12.09;100.00
45731;BME280;31440;48.584;13.460;2023-05-08T00:40:50;97170.44;;;12.37;100.00
45731;BME280;31440;48.584;13.460;2023-05-08T00:43:55;97173.78;;;12.17;100.00
45731;BME280;31440;48.584;13.460;2023-05-08T00:47:00;97180.34;;;12.02;100.00
45731;BME280;31440;48.584;13.460;2023-05-08T00:50:05;97187.50;;;11.96;100.00
45731;BME280;31440;48.584;13.460;2023-05-08T00:53:10;97190.84;;;11.74;100.00
45731;BME280;31440;48.584;13.460;2023-05-08T00:56:15;97193.53;;;12.23;100.00
45731;BME280;31440;48.584;13.460;2023-05-08T00:59:20;97195.31;;;11.96;100.00
45731;BME280;31440;48.584;13.460;2023-05-08T01:02:26;97193.50;;;11.98;100.00
45731;BME280;31440;48.584;13.460;2023-05-08T01:05:32;97197.31;;;12.12;100.00
45731;BME280;31440;48.584;13.460;2023-05-08T01:08:37;97202.75;;;11.81;100.00
45731;BME280;31440;48.584;13.460;2023-05-08T01:11:47;97199.81;;;11.91;100.00
45731;BME280;31440;48.584;13.460;2023-05-08T01:15:17;97204.78;;;11.98;100.00
45731;BME280;31440;48.584;13.460;2023-05-08T01:21:44;97192.47;;;11.26;100.00
45731;BME280;31440;48.584;13.460;2023-05-08T01:31:36;97216.00;;;11.21;100.00
45731;BME280;31440;48.584;13.460;2023-05-08T01:38:20;97226.56;;;11.43;100.00
45731;BME280;31440;48.584;13.460;2023-05-08T01:41:26;97234.22;;;11.47;100.00
45731;BME280;31440;48.584;13.460;2023-05-08T01:44:36;97238.66;;;11.18;100.00
45731;BME280;31440;48.584;13.460;2023-05-08T01:47:43;97234.78;;;11.01;100.00
45731;BME280;31440;48.584;13.460;2023-05-08T01:51:04;97244.84;;;11.13;100.00
45731;BME280;31440;48.584;13.460;2023-05-08T01:54:15;97247.47;;;11.12;100.00
45731;BME280;31440;48.584;13.460;2023-05-08T01:57:26;97250.31;;;11.32;100.00
45731;BME280;31440;48.584;13.460;2023-05-08T02:00:31;97249.28;;;11.36;100.00
45731;BME280;31440;48.584;13.460;2023-05-08T02:03:36;97255.66;;;11.28;100.00
45731;BME280;31440;48.584;13.460;2023-05-08T02:06:43;97244.75;;;11.16;100.00
45731;BME280;31440;48.584;13.460;2023-05-08T02:09:53;97249.34;;;11.07;100.00
45731;BME280;31440;48.584;13.460;2023-05-08T02:12:59;97251.00;;;11.09;100.00
45731;BME280;31440;48.584;13.460;2023-05-08T02:16:07;97243.09;;;10.85;100.00
45731;BME280;31440;48.584;13.460;2023-05-08T02:19:13;97246.81;;;10.76;100.00
45731;BME280;31440;48.584;13.460;2023-05-08T02:22:20;97246.00;;;10.43;100.00
45731;BME280;31440;48.584;13.460;2023-05-08T02:25:27;97251.22;;;10.72;100.00
45731;BME280;31440;48.584;13.460;2023-05-08T02:28:34;97252.06;;;10.43;100.00
45731;BME280;31440;48.584;13.460;2023-05-08T02:31:40;97229.16;;;10.27;100.00
45731;BME280;31440;48.584;13.460;2023-05-08T02:34:47;97256.50;;;9.73;100.00
45731;BME280;31440;48.584;13.460;2023-05-08T02:38:06;97246.63;;;10.20;100.00
45731;BME280;31440;48.584;13.460;2023-05-08T02:41:14;97248.78;;;10.37;100.00
45731;BME280;31440;48.584;13.460;2023-05-08T02:44:21;97251.91;;;10.48;100.00
45731;BME280;31440;48.584;13.460;2023-05-08T02:47:36;97254.47;;;10.19;100.00
45731;BME280;31440;48.584;13.460;2023-05-08T02:54:09;97256.69;;;10.00;100.00
45731;BME280;31440;48.584;13.460;2023-05-08T02:57:25;97271.75;;;9.86;100.00
45731;BME280;31440;48.584;13.460;2023-05-08T03:00:46;97263.56;;;10.01;100.00
45731;BME280;31440;48.584;13.460;2023-05-08T03:03:58;97261.28;;;10.85;100.00
45731;BME280;31440;48.584;13.460;2023-05-08T03:07:05;97264.72;;;10.23;100.00
45731;BME280;31440;48.584;13.460;2023-05-08T03:10:11;97265.75;;;10.16;100.00
45731;BME280;31440;48.584;13.460;2023-05-08T03:13:18;97260.13;;;10.33;100.00
45731;BME280;31440;48.584;13.460;2023-05-08T03:16:26;97263.47;;;10.05;100.00
45731;BME280;31440;48.584;13.460;2023-05-08T03:19:37;97269.50;;;10.06;100.00
45731;BME280;31440;48.584;13.460;2023-05-08T03:22:44;97265.47;;;9.60;100.00
45731;BME280;31440;48.584;13.460;2023-05-08T03:25:51;97268.63;;;9.73;100.00
45731;BME280;31440;48.584;13.460;2023-05-08T03:28:57;97263.50;;;10.04;100.00
45731;BME280;31440;48.584;13.460;2023-05-08T03:32:07;97257.94;;;10.18;100.00
45731;BME280;31440;48.584;13.460;2023-05-08T03:35:14;97264.53;;;9.97;100.00
45731;BME280;31440;48.584;13.460;2023-05-08T03:38:20;97265.56;;;9.91;100.00
45731;BME280;31440;48.584;13.460;2023-05-08T03:41:25;97269.16;;;9.86;100.00
45731;BME280;31440;48.584;13.460;2023-05-08T03:44:31;97279.06;;;10.04;100.00
45731;BME280;31440;48.584;13.460;2023-05-08T03:47:36;97260.47;;;9.88;100.00
45731;BME280;31440;48.584;13.460;2023-05-08T03:50:42;97276.66;;;9.96;100.00
45731;BME280;31440;48.584;13.460;2023-05-08T03:53:47;97283.34;;;9.71;100.00
45731;BME280;31440;48.584;13.460;2023-05-08T03:56:52;97278.44;;;9.59;100.00
45731;BME280;31440;48.584;13.460;2023-05-08T04:00:05;97290.41;;;9.64;100.00
45731;BME280;31440;48.584;13.460;2023-05-08T04:07:04;97308.81;;;9.15;100.00
45731;BME280;31440;48.584;13.460;2023-05-08T04:10:24;97313.63;;;8.49;100.00
45731;BME280;31440;48.584;13.460;2023-05-08T04:13:31;97318.06;;;8.42;100.00
45731;BME280;31440;48.584;13.460;2023-05-08T04:19:48;97323.25;;;9.27;100.00
45731;BME280;31440;48.584;13.460;2023-05-08T04:22:57;97330.91;;;8.90;100.00
45731;BME280;31440;48.584;13.460;2023-05-08T04:26:02;97338.91;;;8.79;100.00
45731;BME280;31440;48.584;13.460;2023-05-08T04:29:09;97341.31;;;8.44;100.00
45731;BME280;31440;48.584;13.460;2023-05-08T04:32:14;97341.25;;;8.48;100.00
45731;BME280;31440;48.584;13.460;2023-05-08T04:35:19;97329.47;;;8.77;100.00
45731;BME280;31440;48.584;13.460;2023-05-08T04:38:25;97346.97;;;8.64;100.00
45731;BME280;31440;48.584;13.460;2023-05-08T04:41:30;97358.06;;;8.69;100.00
45731;BME280;31440;48.584;13.460;2023-05-08T04:44:35;97355.59;;;9.06;100.00
45731;BME280;31440;48.584;13.460;2023-05-08T04:47:40;97358.91;;;8.71;100.00
45731;BME280;31440;48.584;13.460;2023-05-08T04:50:45;97357.50;;;8.99;100.00
45731;BME280;31440;48.584;13.460;2023-05-08T04:53:49;97357.22;;;8.68;100.00
45731;BME280;31440;48.584;13.460;2023-05-08T04:56:54;97367.31;;;8.36;100.00
45731;BME280;31440;48.584;13.460;2023-05-08T04:59:59;97379.88;;;8.08;100.00
45731;BME280;31440;48.584;13.460;2023-05-08T05:03:03;97375.50;;;9.04;100.00
45731;BME280;31440;48.584;13.460;2023-05-08T05:06:08;97343.88;;;8.90;100.00
45731;BME280;31440;48.584;13.460;2023-05-08T05:09:13;97376.50;;;8.98;100.00
45731;BME280;31440;48.584;13.460;2023-05-08T05:12:18;97385.31;;;9.33;100.00
45731;BME280;31440;48.584;13.460;2023-05-08T05:15:22;97384.16;;;9.46;100.00
45731;BME280;31440;48.584;13.460;2023-05-08T05:18:27;97377.19;;;9.48;100.00
45731;BME280;31440;48.584;13.460;2023-05-08T05:21:32;97380.81;;;9.78;100.00
45731;BME280;31440;48.584;13.460;2023-05-08T05:24:37;97374.09;;;9.71;100.00
45731;BME280;31440;48.584;13.460;2023-05-08T05:27:43;97382.50;;;9.81;100.00
45731;BME280;31440;48.584;13.460;2023-05-08T05:30:47;97387.13;;;10.05;100.00
45731;BME280;31440;48.584;13.460;2023-05-08T05:33:52;97384.75;;;10.30;100.00
45731;BME280;31440;48.584;13.460;2023-05-08T05:36:56;97387.06;;;10.42;100.00
45731;BME280;31440;48.584;13.460;2023-05-08T05:40:02;97386.28;;;10.38;100.00
45731;BME280;31440;48.584;13.460;2023-05-08T05:43:08;97382.56;;;10.47;100.00
45731;BME280;31440;48.584;13.460;2023-05-08T05:46:13;97393.59;;;10.57;100.00
45731;BME280;31440;48.584;13.460;2023-05-08T05:49:18;97386.72;;;10.88;100.00
45731;BME280;31440;48.584;13.460;2023-05-08T05:52:23;97393.91;;;11.68;100.00
45731;BME280;31440;48.584;13.460;2023-05-08T05:55:28;97399.28;;;11.62;100.00
45731;BME280;31440;48.584;13.460;2023-05-08T05:58:33;97394.81;;;11.67;100.00
45731;BME280;31440;48.584;13.460;2023-05-08T06:01:38;97398.53;;;11.86;100.00
45731;BME280;31440;48.584;13.460;2023-05-08T06:04:43;97399.09;;;11.96;100.00
45731;BME280;31440;48.584;13.460;2023-05-08T06:07:48;97399.66;;;12.34;100.00
45731;BME280;31440;48.584;13.460;2023-05-08T06:10:52;97401.16;;;11.86;100.00
45731;BME280;31440;48.584;13.460;2023-05-08T06:13:57;97401.97;;;12.68;100.00
45731;BME280;31440;48.584;13.460;2023-05-08T06:17:02;97404.59;;;12.15;100.00
45731;BME280;31440;48.584;13.460;2023-05-08T06:20:07;97405.00;;;12.01;100.00
45731;BME280;31440;48.584;13.460;2023-05-08T06:23:13;97407.25;;;11.85;100.00
45731;BME280;31440;48.584;13.460;2023-05-08T06:29:26;97412.00;;;11.99;100.00
45731;BME280;31440;48.584;13.460;2023-05-08T06:32:31;97418.41;;;12.17;100.00
45731;BME280;31440;48.584;13.460;2023-05-08T06:35:35;97413.28;;;12.42;100.00
45731;BME280;31440;48.584;13.460;2023-05-08T06:38:40;97420.00;;;12.74;100.00
45731;BME280;31440;48.584;13.460;2023-05-08T06:41:48;97420.19;;;12.68;96.18
45731;BME280;31440;48.584;13.460;2023-05-08T06:45:03;97397.75;;;13.13;94.41
45731;BME280;31440;48.584;13.460;2023-05-08T06:48:08;97416.25;;;13.54;91.57
45731;BME280;31440;48.584;13.460;2023-05-08T06:51:12;97412.94;;;13.50;91.07
45731;BME280;31440;48.584;13.460;2023-05-08T06:54:17;97409.25;;;13.31;93.95
45731;BME280;31440;48.584;13.460;2023-05-08T06:57:22;97414.31;;;13.82;85.67
45731;BME280;31440;48.584;13.460;2023-05-08T07:00:27;97412.91;;;14.17;87.02
45731;BME280;31440;48.584;13.460;2023-05-08T07:03:32;97413.38;;;14.27;82.56
45731;BME280;31440;48.584;13.460;2023-05-08T07:06:36;97410.28;;;14.39;81.77
45731;BME280;31440;48.584;13.460;2023-05-08T07:09:41;97391.34;;;14.56;78.60
45731;BME280;31440;48.584;13.460;2023-05-08T07:12:45;97414.41;;;14.23;84.60
45731;BME280;31440;48.584;13.460;2023-05-08T07:15:50;97405.38;;;14.94;77.34
45731;BME280;31440;48.584;13.460;2023-05-08T07:18:55;97409.63;;;14.34;79.64
45731;BME280;31440;48.584;13.460;2023-05-08T07:21:59;97404.47;;;14.53;80.23
45731;BME280;31440;48.584;13.460;2023-05-08T07:25:04;97396.53;;;14.96;77.49
45731;BME280;31440;48.584;13.460;2023-05-08T07:28:09;97403.13;;;15.44;70.95
45731;BME280;31440;48.584;13.460;2023-05-08T07:34:19;97404.94;;;15.23;76.89
45731;BME280;31440;48.584;13.460;2023-05-08T07:37:24;97410.72;;;15.11;74.75
45731;BME280;31440;48.584;13.460;2023-05-08T07:40:29;97407.56;;;14.62;69.44
45731;BME280;31440;48.584;13.460;2023-05-08T07:43:33;97405.94;;;15.40;67.34
45731;BME280;31440;48.584;13.460;2023-05-08T07:46:38;97405.81;;;15.43;73.01
45731;BME280;31440;48.584;13.460;2023-05-08T07:49:42;97404.66;;;16.41;72.52
45731;BME280;31440;48.584;13.460;2023-05-08T07:52:47;97389.13;;;15.26;69.81
45731;BME280;31440;48.584;13.460;2023-05-08T07:55:53;97404.97;;;16.17;65.69
45731;BME280;31440;48.584;13.460;2023-05-08T07:58:58;97404.19;;;16.15;64.95
45731;BME280;31440;48.584;13.460;2023-05-08T08:02:02;97407.53;;;16.53;60.18
45731;BME280;31440;48.584;13.460;2023-05-08T08:05:07;97414.31;;;15.85;64.48
45731;BME280;31440;48.584;13.460;2023-05-08T08:08:12;97413.69;;;16.35;60.91
45731;BME280;31440;48.584;13.460;2023-05-08T08:11:18;97395.63;;;15.55;62.11
45731;BME280;31440;48.584;13.460;2023-05-08T08:14:22;97408.75;;;15.93;60.86
45731;BME280;31440;48.584;13.460;2023-05-08T08:17:27;97401.25;;;16.21;64.04
45731;BME280;31440;48.584;13.460;2023-05-08T08:20:32;97404.69;;;15.86;65.24
45731;BME280;31440;48.584;13.460;2023-05-08T08:23:37;97406.84;;;16.50;65.67
45731;BME280;31440;48.584;13.460;2023-05-08T08:29:46;97400.91;;;15.74;62.59
45731;BME280;31440;48.584;13.460;2023-05-08T08:32:50;97406.31;;;16.78;60.27
45731;BME280;31440;48.584;13.460;2023-05-08T08:35:55;97404.94;;;17.05;59.94
45731;BME280;31440;48.584;13.460;2023-05-08T08:39:00;97401.13;;;16.42;57.80
45731;BME280;31440;48.584;13.460;2023-05-08T08:42:05;97404.94;;;17.05;62.90
45731;BME280;31440;48.584;13.460;2023-05-08T08:45:09;97407.88;;;16.82;59.25
45731;BME280;31440;48.584;13.460;2023-05-08T08:48:14;97412.75;;;16.72;57.65
45731;BME280;31440;48.584;13.460;2023-05-08T08:54:34;97408.72;;;16.99;60.06
45731;BME280;31440;48.584;13.460;2023-05-08T08:57:47;97403.50;;;17.15;59.38
45731;BME280;31440;48.584;13.460;2023-05-08T09:00:53;97396.97;;;17.88;59.54
45731;BME280;31440;48.584;13.460;2023-05-08T09:03:59;97396.28;;;18.00;55.24
45731;BME280;31440;48.584;13.460;2023-05-08T09:07:04;97376.84;;;17.56;53.99
45731;BME280;31440;48.584;13.460;2023-05-08T09:13:19;97392.59;;;18.19;55.45
45731;BME280;31440;48.584;13.460;2023-05-08T09:16:24;97394.41;;;18.34;53.49
45731;BME280;31440;48.584;13.460;2023-05-08T09:19:32;97391.44;;;18.08;52.35
45731;BME280;31440;48.584;13.460;2023-05-08T09:22:36;97385.56;;;17.56;54.20
45731;BME280;31440;48.584;13.460;2023-05-08T09:25:48;97385.19;;;18.57;50.50
45731;BME280;31440;48.584;13.460;2023-05-08T09:29:17;97388.25;;;18.49;51.50
45731;BME280;31440;48.584;13.460;2023-05-08T09:32:22;97379.31;;;18.67;52.43
45731;BME280;31440;48.584;13.460;2023-05-08T09:35:34;97378.75;;;19.49;44.70
45731;BME280;31440;48.584;13.460;2023-05-08T09:38:39;97383.94;;;19.51;50.48
45731;BME280;31440;48.584;13.460;2023-05-08T09:44:52;97369.19;;;19.89;46.73
45731;BME280;31440;48.584;13.460;2023-05-08T09:47:57;97382.31;;;20.03;47.75
45731;BME280;31440;48.584;13.460;2023-05-08T09:51:05;97379.72;;;19.89;45.67
45731;BME280;31440;48.584;13.460;2023-05-08T09:54:16;97376.69;;;20.89;45.30
45731;BME280;31440;48.584;13.460;2023-05-08T09:57:21;97349.06;;;20.42;46.97
45731;BME280;31440;48.584;13.460;2023-05-08T10:00:27;97379.22;;;20.38;45.72
45731;BME280;31440;48.584;13.460;2023-05-08T10:03:48;97372.16;;;20.38;42.68
45731;BME280;31440;48.584;13.460;2023-05-08T10:06:56;97369.59;;;20.64;44.18
45731;BME280;31440;48.584;13.460;2023-05-08T10:10:03;97369.41;;;20.92;46.54
45731;BME280;31440;48.584;13.460;2023-05-08T10:13:09;97363.19;;;21.93;47.18
45731;BME280;31440;48.584;13.460;2023-05-08T10:16:15;97353.38;;;21.95;43.38
45731;BME280;31440;48.584;13.460;2023-05-08T10:19:22;97353.25;;;21.97;45.52
45731;BME280;31440;48.584;13.460;2023-05-08T10:22:27;97347.00;;;21.61;43.06
45731;BME280;31440;48.584;13.460;2023-05-08T10:25:33;97337.16;;;21.01;42.86
45731;BME280;31440;48.584;13.460;2023-05-08T10:28:54;97329.31;;;21.74;43.68
45731;BME280;31440;48.584;13.460;2023-05-08T10:32:02;97343.22;;;23.07;41.01
45731;BME280;31440;48.584;13.460;2023-05-08T10:35:09;97335.03;;;23.88;42.48
45731;BME280;31440;48.584;13.460;2023-05-08T10:38:15;97346.59;;;23.76;39.32
45731;BME280;31440;48.584;13.460;2023-05-08T10:41:20;97342.50;;;24.37;41.47
45731;BME280;31440;48.584;13.460;2023-05-08T10:44:27;97328.66;;;24.02;40.85
45731;BME280;31440;48.584;13.460;2023-05-08T10:51:26;97334.81;;;22.32;41.52
45731;BME280;31440;48.584;13.460;2023-05-08T10:54:41;97323.47;;;24.85;38.80
45731;BME280;31440;48.584;13.460;2023-05-08T10:58:04;97330.69;;;23.87;40.53
45731;BME280;31440;48.584;13.460;2023-05-08T11:01:11;97330.38;;;22.67;39.05
45731;BME280;31440;48.584;13.460;2023-05-08T11:04:20;97323.50;;;23.11;36.14
45731;BME280;31440;48.584;13.460;2023-05-08T11:07:31;97313.31;;;23.29;39.05
45731;BME280;31440;48.584;13.460;2023-05-08T11:14:12;97308.53;;;22.87;39.66
45731;BME280;31440;48.584;13.460;2023-05-08T11:17:22;97311.22;;;23.66;38.82
45731;BME280;31440;48.584;13.460;2023-05-08T11:20:40;97304.66;;;24.35;39.46
45731;BME280;31440;48.584;13.460;2023-05-08T11:23:55;97304.16;;;24.83;39.25
45731;BME280;31440;48.584;13.460;2023-05-08T11:27:00;97296.06;;;23.12;37.08
45731;BME280;31440;48.584;13.460;2023-05-08T11:30:43;97287.44;;;23.98;37.10
45731;BME280;31440;48.584;13.460;2023-05-08T11:33:47;97288.84;;;24.34;36.60
45731;BME280;31440;48.584;13.460;2023-05-08T11:37:01;97286.22;;;24.96;36.88
45731;BME280;31440;48.584;13.460;2023-05-08T11:40:47;97286.88;;;24.68;35.72
45731;BME280;31440;48.584;13.460;2023-05-08T11:47:07;97251.94;;;25.23;36.73
45731;BME280;31440;48.584;13.460;2023-05-08T11:50:12;97281.63;;;25.28;35.67
45731;BME280;31440;48.584;13.460;2023-05-08T11:53:17;97285.84;;;26.96;34.81
45731;BME280;31440;48.584;13.460;2023-05-08T11:56:23;97278.69;;;27.07;34.22
45731;BME280;31440;48.584;13.460;2023-05-08T11:59:27;97280.44;;;26.50;34.49
45731;BME280;31440;48.584;13.460;2023-05-08T12:02:40;97277.22;;;26.56;33.86
45731;BME280;31440;48.584;13.460;2023-05-08T12:05:46;97270.38;;;26.24;33.77
45731;BME280;31440;48.584;13.460;2023-05-08T12:08:51;97263.38;;;26.62;37.98
45731;BME280;31440;48.584;13.460;2023-05-08T12:11:56;97267.88;;;26.04;38.09
45731;BME280;31440;48.584;13.460;2023-05-08T12:15:05;97280.13;;;25.36;37.18
45731;BME280;31440;48.584;13.460;2023-05-08T12:18:10;97275.66;;;25.06;37.28
45731;BME280;31440;48.584;13.460;2023-05-08T12:21:15;97279.69;;;24.38;37.35
45731;BME280;31440;48.584;13.460;2023-05-08T12:24:20;97268.69;;;24.84;37.68
45731;BME280;31440;48.584;13.460;2023-05-08T12:30:34;97284.22;;;24.15;39.60
45731;BME280;31440;48.584;13.460;2023-05-08T12:33:39;97277.75;;;24.81;39.39
45731;BME280;31440;48.584;13.460;2023-05-08T12:36:44;97278.09;;;24.67;39.25
45731;BME280;31440;48.584;13.460;2023-05-08T12:39:48;97275.56;;;23.70;40.71
45731;BME280;31440;48.584;13.460;2023-05-08T12:42:53;97277.50;;;23.56;39.42
45731;BME280;31440;48.584;13.460;2023-05-08T12:45:58;97286.16;;;24.13;39.98
45731;BME280;31440;48.584;13.460;2023-05-08T12:49:02;97279.44;;;23.21;40.27
45731;BME280;31440;48.584;13.460;2023-05-08T12:52:12;97286.13;;;21.26;42.64
45731;BME280;31440;48.584;13.460;2023-05-08T12:55:26;97274.19;;;23.86;42.51
45731;BME280;31440;48.584;13.460;2023-05-08T13:01:36;97280.91;;;24.34;36.81
45731;BME280;31440;48.584;13.460;2023-05-08T13:04:41;97281.84;;;25.46;36.36
45731;BME280;31440;48.584;13.460;2023-05-08T13:07:46;97277.53;;;25.45;39.82
45731;BME280;31440;48.584;13.460;2023-05-08T13:10:52;97279.06;;;23.70;35.39
45731;BME280;31440;48.584;13.460;2023-05-08T13:13:57;97269.91;;;24.59;35.18
45731;BME280;31440;48.584;13.460;2023-05-08T13:17:02;97270.63;;;25.33;36.08
45731;BME280;31440;48.584;13.460;2023-05-08T13:20:08;97241.56;;;25.41;39.58
45731;BME280;31440;48.584;13.460;2023-05-08T13:23:13;97265.84;;;24.97;39.65
45731;BME280;31440;48.584;13.460;2023-05-08T13:26:17;97260.31;;;25.19;36.81
45731;BME280;31440;48.584;13.460;2023-05-08T13:29:22;97266.84;;;25.05;35.51
45731;BME280;31440;48.584;13.460;2023-05-08T13:32:27;97253.25;;;25.79;34.35
45731;BME280;31440;48.584;13.460;2023-05-08T13:35:32;97253.38;;;25.68;32.74
45731;BME280;31440;48.584;13.460;2023-05-08T13:38:37;97253.03;;;26.01;32.90
45731;BME280;31440;48.584;13.460;2023-05-08T13:41:42;97239.88;;;26.19;32.14
45731;BME280;31440;48.584;13.460;2023-05-08T13:44:46;97244.72;;;25.85;34.08
45731;BME280;31440;48.584;13.460;2023-05-08T13:47:51;97236.50;;;26.17;31.03
45731;BME280;31440;48.584;13.460;2023-05-08T13:54:01;97249.03;;;25.76;31.89
45731;BME280;31440;48.584;13.460;2023-05-08T13:57:06;97245.47;;;25.96;30.95
45731;BME280;31440;48.584;13.460;2023-05-08T14:00:11;97247.72;;;25.42;32.31
45731;BME280;31440;48.584;13.460;2023-05-08T14:03:16;97255.69;;;25.42;33.04
45731;BME280;31440;48.584;13.460;2023-05-08T14:06:22;97226.84;;;25.37;32.84
45731;BME280;31440;48.584;13.460;2023-05-08T14:09:26;97245.03;;;26.01;34.44
45731;BME280;31440;48.584;13.460;2023-05-08T14:12:31;97240.19;;;24.86;32.59
45731;BME280;31440;48.584;13.460;2023-05-08T14:15:39;97240.91;;;24.88;32.59
45731;BME280;31440;48.584;13.460;2023-05-08T14:18:45;97220.66;;;24.45;33.32
45731;BME280;31440;48.584;13.460;2023-05-08T14:21:49;97238.34;;;23.92;33.05
45731;BME280;31440;48.584;13.460;2023-05-08T14:24:54;97244.31;;;23.84;32.48
45731;BME280;31440;48.584;13.460;2023-05-08T14:27:59;97232.31;;;23.69;35.47
45731;BME280;31440;48.584;13.460;2023-05-08T14:31:04;97232.22;;;24.03;32.05
45731;BME280;31440;48.584;13.460;2023-05-08T14:37:14;97228.84;;;25.45;35.04
45731;BME280;31440;48.584;13.460;2023-05-08T14:40:20;97239.28;;;24.97;34.41
45731;BME280;31440;48.584;13.460;2023-05-08T14:43:27;97232.59;;;25.42;35.14
45731;BME280;31440;48.584;13.460;2023-05-08T14:46:32;97227.97;;;24.32;33.40
45731;BME280;31440;48.584;13.460;2023-05-08T14:49:39;97193.09;;;24.78;34.11
45731;BME280;31440;48.584;13.460;2023-05-08T14:52:43;97231.72;;;25.02;36.55
45731;BME280;31440;48.584;13.460;2023-05-08T14:55:48;97231.41;;;24.65;35.29
45731;BME280;31440;48.584;13.460;2023-05-08T14:58:53;97227.09;;;23.79;36.41
45731;BME280;31440;48.584;13.460;2023-05-08T15:01:58;97232.38;;;24.64;35.65
45731;BME280;31440;48.584;13.460;2023-05-08T15:05:04;97236.09;;;23.99;37.15
45731;BME280;31440;48.584;13.460;2023-05-08T15:08:17;97226.22;;;25.24;36.67
45731;BME280;31440;48.584;13.460;2023-05-08T15:14:27;97232.13;;;25.27;34.43
45731;BME280;31440;48.584;13.460;2023-05-08T15:17:32;97237.28;;;25.69;34.32
45731;BME280;31440;48.584;13.460;2023-05-08T15:20:39;97237.03;;;24.71;34.24
45731;BME280;31440;48.584;13.460;2023-05-08T15:23:44;97231.59;;;23.67;36.16
45731;BME280;31440;48.584;13.460;2023-05-08T15:26:48;97243.06;;;23.23;36.11
45731;BME280;31440;48.584;13.460;2023-05-08T15:29:54;97238.16;;;22.28;37.08
45731;BME280;31440;48.584;13.460;2023-05-08T15:32:58;97244.66;;;22.81;37.46
45731;BME280;31440;48.584;13.460;2023-05-08T15:36:03;97239.81;;;22.17;37.71
45731;BME280;31440;48.584;13.460;2023-05-08T15:39:08;97244.78;;;21.74;38.91
45731;BME280;31440;48.584;13.460;2023-05-08T15:42:12;97248.03;;;22.02;38.05
45731;BME280;31440;48.584;13.460;2023-05-08T15:45:17;97245.19;;;21.81;37.71
45731;BME280;31440;48.584;13.460;2023-05-08T15:48:22;97248.13;;;21.16;39.74
45731;BME280;31440;48.584;13.460;2023-05-08T15:51:26;97240.22;;;21.16;40.46
45731;BME280;31440;48.584;13.460;2023-05-08T15:54:32;97234.31;;;21.49;39.38
45731;BME280;31440;48.584;13.460;2023-05-08T15:57:38;97218.13;;;21.54;38.84
45731;BME280;31440;48.584;13.460;2023-05-08T16:00:42;97238.31;;;21.18;39.83
45731;BME280;31440;48.584;13.460;2023-05-08T16:03:48;97237.16;;;20.71;40.23
45731;BME280;31440;48.584;13.460;2023-05-08T16:06:53;97238.88;;;20.85;39.83
45731;BME280;31440;48.584;13.460;2023-05-08T16:09:59;97231.47;;;20.27;40.39
45731;BME280;31440;48.584;13.460;2023-05-08T16:13:03;97236.06;;;20.10;40.06
45731;BME280;31440;48.584;13.460;2023-05-08T16:16:09;97249.63;;;20.44;41.08
45731;BME280;31440;48.584;13.460;2023-05-08T16:19:13;97247.41;;;20.76;39.61
45731;BME280;31440;48.584;13.460;2023-05-08T16:22:19;97244.34;;;19.92;41.67
45731;BME280;31440;48.584;13.460;2023-05-08T16:28:29;97255.97;;;20.67;40.90
45731;BME280;31440;48.584;13.460;2023-05-08T16:31:34;97259.63;;;20.26;40.43
45731;BME280;31440;48.584;13.460;2023-05-08T16:34:38;97255.06;;;19.89;39.22
45731;BME280;31440;48.584;13.460;2023-05-08T16:37:43;97261.75;;;20.46;39.86
45731;BME280;31440;48.584;13.460;2023-05-08T16:40:48;97257.44;;;19.52;39.49
45731;BME280;31440;48.584;13.460;2023-05-08T16:43:52;97261.69;;;19.55;39.15
45731;BME280;31440;48.584;13.460;2023-05-08T16:46:57;97262.97;;;19.62;40.09
45731;BME280;31440;48.584;13.460;2023-05-08T16:50:02;97268.03;;;19.92;39.50
45731;BME280;31440;48.584;13.460;2023-05-08T16:53:07;97263.06;;;19.05;41.07
45731;BME280;31440;48.584;13.460;2023-05-08T16:56:12;97256.22;;;18.30;40.94
45731;BME280;31440;48.584;13.460;2023-05-08T16:59:16;97260.16;;;18.67;39.53
45731;BME280;31440;48.584;13.460;2023-05-08T17:02:21;97259.66;;;18.60;40.39
45731;BME280;31440;48.584;13.460;2023-05-08T17:05:25;97258.47;;;18.80;41.17
45731;BME280;31440;48.584;13.460;2023-05-08T17:08:30;97257.16;;;18.87;38.97
45731;BME280;31440;48.584;13.460;2023-05-08T17:11:34;97256.22;;;18.30;40.87
45731;BME280;31440;48.584;13.460;2023-05-08T17:14:40;97260.56;;;18.45;40.82
45731;BME280;31440;48.584;13.460;2023-05-08T17:17:49;97239.81;;;17.96;40.99
45731;BME280;31440;48.584;13.460;2023-05-08T17:20:54;97259.66;;;18.74;41.28
45731;BME280;31440;48.584;13.460;2023-05-08T17:23:59;97248.09;;;18.91;39.57